createdAt,value
2019-03-31T00:01:56.941Z,23.00
2019-03-31T00:04:25.386Z,21.83
2019-03-31T00:06:53.801Z,21.30
2019-03-31T00:09:22.409Z,20.97
2019-03-31T00:11:50.878Z,20.80
2019-03-31T00:14:19.361Z,20.40
2019-03-31T00:16:47.806Z,21.60
2019-03-31T00:19:16.229Z,20.87
2019-03-31T00:21:44.692Z,19.83
2019-03-31T00:24:13.134Z,20.40
2019-03-31T00:26:41.575Z,17.30
2019-03-31T00:29:10.088Z,21.30
2019-03-31T00:31:38.594Z,20.57
2019-03-31T00:34:07.136Z,19.93
2019-03-31T00:36:35.605Z,17.70
2019-03-31T00:39:06.848Z,19.33
2019-03-31T00:41:35.358Z,20.20
2019-03-31T00:44:04.016Z,18.33
2019-03-31T00:46:32.467Z,19.10
2019-03-31T00:49:00.912Z,19.10
2019-03-31T00:51:29.423Z,19.27
2019-03-31T00:53:57.843Z,18.40
2019-03-31T00:56:26.284Z,17.83
2019-03-31T00:58:54.724Z,18.23
2019-03-31T01:01:35.672Z,17.00
2019-03-31T01:03:55.084Z,17.70
2019-03-31T01:06:24.003Z,17.33
2019-03-31T01:08:52.715Z,18.50
2019-03-31T01:11:24.796Z,19.50
2019-03-31T01:13:53.322Z,20.03
2019-03-31T01:16:21.981Z,17.67
2019-03-31T01:18:50.436Z,20.20
2019-03-31T01:21:18.847Z,19.70
2019-03-31T01:23:47.291Z,20.47
2019-03-31T01:26:18.275Z,18.33
2019-03-31T01:28:46.821Z,19.50
2019-03-31T01:31:15.407Z,17.93
2019-03-31T01:33:44.343Z,19.83
2019-03-31T01:36:12.827Z,19.30
2019-03-31T01:38:41.257Z,19.07
2019-03-31T01:41:10.215Z,17.80
2019-03-31T01:43:38.731Z,18.70
2019-03-31T01:46:09.005Z,17.87
2019-03-31T01:48:37.549Z,16.40
2019-03-31T01:51:06.388Z,16.30
2019-03-31T01:53:34.829Z,17.30
2019-03-31T01:56:03.492Z,16.33
2019-03-31T01:58:31.945Z,16.10
2019-03-31T02:01:02.077Z,16.80
2019-03-31T02:03:30.593Z,16.10
2019-03-31T02:05:59.168Z,15.90
2019-03-31T02:08:27.609Z,14.90
2019-03-31T02:10:56.110Z,15.00
2019-03-31T02:13:24.648Z,16.67
2019-03-31T02:15:53.257Z,16.73
2019-03-31T02:18:21.688Z,16.10
2019-03-31T02:20:50.116Z,14.30
2019-03-31T02:23:18.526Z,13.77
2019-03-31T02:25:46.962Z,13.73
2019-03-31T02:28:15.492Z,13.90
2019-03-31T02:30:43.930Z,13.33
2019-03-31T02:33:12.350Z,13.50
2019-03-31T02:35:40.864Z,13.67
2019-03-31T02:38:09.289Z,13.77
2019-03-31T02:40:37.725Z,12.40
2019-03-31T02:43:06.159Z,13.47
2019-03-31T02:45:34.593Z,13.40
2019-03-31T02:48:03.149Z,13.20
2019-03-31T02:50:46.175Z,13.53
2019-03-31T02:53:16.092Z,13.50
2019-03-31T02:55:45.367Z,13.80
2019-03-31T02:58:17.841Z,13.70
2019-03-31T03:00:46.823Z,13.63
2019-03-31T03:03:15.615Z,13.93
2019-03-31T03:05:45.238Z,12.67
2019-03-31T03:08:14.392Z,14.20
2019-03-31T03:10:43.992Z,14.20
2019-03-31T03:13:14.918Z,12.73
2019-03-31T03:15:46.422Z,14.90
2019-03-31T03:18:14.923Z,13.77
2019-03-31T03:20:43.409Z,14.47
2019-03-31T03:23:11.937Z,13.83
2019-03-31T03:25:54.842Z,13.60
2019-03-31T03:28:10.581Z,13.60
2019-03-31T03:30:39.155Z,15.40
2019-03-31T03:33:17.580Z,14.30
2019-03-31T03:35:37.923Z,14.07
2019-03-31T03:38:06.440Z,15.63
2019-03-31T03:40:34.880Z,14.97
2019-03-31T03:43:03.333Z,16.20
2019-03-31T03:45:31.766Z,14.83
2019-03-31T03:48:00.274Z,14.60
2019-03-31T03:50:28.698Z,16.53
2019-03-31T03:52:57.146Z,16.07
2019-03-31T03:55:25.581Z,15.30
2019-03-31T03:57:54.149Z,15.70
2019-03-31T04:00:22.605Z,13.90
2019-03-31T04:02:51.054Z,14.23
2019-03-31T04:05:19.470Z,14.00
2019-03-31T04:07:47.912Z,15.47
2019-03-31T04:10:44.673Z,15.60
2019-03-31T04:13:13.458Z,14.90
2019-03-31T04:15:42.022Z,15.70
2019-03-31T04:18:10.544Z,15.03
2019-03-31T04:20:39.411Z,15.70
2019-03-31T04:23:08.394Z,16.03
2019-03-31T04:25:36.865Z,16.97
2019-03-31T04:28:05.312Z,15.30
2019-03-31T04:30:33.767Z,17.13
2019-03-31T04:33:02.304Z,17.27
2019-03-31T04:35:30.708Z,14.90
2019-03-31T04:37:59.135Z,16.20
2019-03-31T04:40:27.594Z,17.33
2019-03-31T04:42:56.054Z,15.23
2019-03-31T04:45:24.460Z,17.23
2019-03-31T04:47:52.915Z,16.57
2019-03-31T04:50:21.370Z,16.30
2019-03-31T04:52:49.801Z,14.30
2019-03-31T04:55:18.216Z,16.77
2019-03-31T04:57:46.645Z,15.90
2019-03-31T05:00:15.147Z,16.87
2019-03-31T05:02:43.576Z,17.33
2019-03-31T05:05:12.005Z,17.40
2019-03-31T05:07:40.469Z,18.63
2019-03-31T05:10:08.977Z,16.57
2019-03-31T05:12:37.465Z,17.80
2019-03-31T05:15:06.087Z,15.83
2019-03-31T05:17:35.960Z,15.80
2019-03-31T05:20:05.719Z,18.07
2019-03-31T05:22:34.148Z,17.53
2019-03-31T05:25:02.710Z,17.07
2019-03-31T05:27:31.123Z,16.80
2019-03-31T05:29:59.569Z,17.47
2019-03-31T05:32:28.069Z,16.80
2019-03-31T05:34:56.509Z,16.67
2019-03-31T05:37:24.924Z,15.97
2019-03-31T05:39:53.368Z,16.27
2019-03-31T05:42:21.786Z,16.40
2019-03-31T05:44:50.228Z,15.97
2019-03-31T05:47:18.655Z,16.33
2019-03-31T05:49:47.092Z,16.50
2019-03-31T05:52:15.559Z,16.57
2019-03-31T05:54:43.985Z,16.77
2019-03-31T05:57:12.421Z,17.90
2019-03-31T05:59:40.851Z,16.70
2019-03-31T06:02:09.297Z,16.00
2019-03-31T06:04:37.721Z,16.97
2019-03-31T06:07:06.185Z,17.77
2019-03-31T06:09:34.663Z,17.43
2019-03-31T06:12:03.174Z,17.10
2019-03-31T06:14:31.597Z,17.83
2019-03-31T06:17:00.053Z,16.90
2019-03-31T06:19:28.464Z,18.90
2019-03-31T06:21:56.993Z,17.87
2019-03-31T06:24:25.410Z,16.57
2019-03-31T06:26:53.857Z,16.97
2019-03-31T06:29:22.285Z,17.47
2019-03-31T06:31:50.747Z,17.60
2019-03-31T06:34:19.266Z,18.60
2019-03-31T06:36:47.728Z,17.47
2019-03-31T06:39:16.163Z,17.20
2019-03-31T06:41:44.623Z,16.10
2019-03-31T06:44:13.032Z,17.53
2019-03-31T06:46:41.457Z,16.73
2019-03-31T06:49:09.900Z,17.43
2019-03-31T06:51:38.325Z,16.23
2019-03-31T06:54:06.765Z,16.50
2019-03-31T06:56:35.202Z,17.50
2019-03-31T06:59:03.717Z,17.13
2019-03-31T07:01:32.186Z,16.70
2019-03-31T07:04:00.689Z,17.03
2019-03-31T07:06:29.114Z,17.33
2019-03-31T07:08:57.570Z,17.40
2019-03-31T07:11:26.066Z,16.13
2019-03-31T07:13:54.620Z,16.03
2019-03-31T07:16:23.040Z,15.63
2019-03-31T07:18:51.505Z,17.90
2019-03-31T07:21:19.921Z,16.93
2019-03-31T07:23:48.359Z,17.80
2019-03-31T07:26:16.796Z,17.30
2019-03-31T07:28:45.331Z,17.20
2019-03-31T07:31:13.785Z,16.40
2019-03-31T07:33:42.217Z,17.30
2019-03-31T07:36:10.955Z,15.30
2019-03-31T07:38:39.909Z,16.73
2019-03-31T07:41:12.896Z,16.70
2019-03-31T07:43:38.581Z,15.67
2019-03-31T07:46:07.003Z,16.80
2019-03-31T07:48:35.432Z,17.00
2019-03-31T07:51:03.896Z,16.67
2019-03-31T07:53:32.351Z,15.50
2019-03-31T07:56:00.829Z,15.70
2019-03-31T07:58:29.476Z,17.23
2019-03-31T08:00:57.961Z,16.60
2019-03-31T08:03:26.453Z,15.83
2019-03-31T08:05:54.911Z,16.73
2019-03-31T08:08:23.342Z,17.03
2019-03-31T08:10:51.895Z,16.00
2019-03-31T08:13:20.371Z,17.30
2019-03-31T08:15:48.828Z,16.13
2019-03-31T08:18:17.246Z,15.03
2019-03-31T08:20:45.674Z,16.80
2019-03-31T08:23:14.178Z,15.20
2019-03-31T08:25:42.764Z,15.20
2019-03-31T08:28:11.188Z,15.40
2019-03-31T08:30:39.652Z,16.27
2019-03-31T08:33:08.079Z,16.33
2019-03-31T08:35:47.317Z,16.17
2019-03-31T08:38:06.688Z,16.87
2019-03-31T08:40:35.171Z,16.90
2019-03-31T08:43:03.680Z,16.47
2019-03-31T08:45:32.152Z,14.90
2019-03-31T08:48:00.578Z,17.57
2019-03-31T08:50:29.105Z,15.40
2019-03-31T08:52:57.558Z,16.17
2019-03-31T08:55:26.019Z,15.77
2019-03-31T08:57:54.451Z,17.50
2019-03-31T09:00:27.008Z,16.73
2019-03-31T09:02:55.452Z,16.97
2019-03-31T09:05:23.881Z,15.53
2019-03-31T09:07:52.353Z,15.90
2019-03-31T09:10:20.821Z,17.67
2019-03-31T09:12:49.285Z,17.70
2019-03-31T09:15:17.874Z,17.97
2019-03-31T09:17:46.330Z,17.10
2019-03-31T09:20:15.272Z,16.73
2019-03-31T09:22:43.811Z,16.80
2019-03-31T09:25:12.583Z,17.07
2019-03-31T09:27:41.117Z,16.70
2019-03-31T09:30:11.570Z,16.60
2019-03-31T09:32:40.131Z,16.27
2019-03-31T09:35:09.236Z,14.80
2019-03-31T09:37:37.757Z,17.60
2019-03-31T09:40:08.534Z,17.33
2019-03-31T09:42:37.058Z,17.37
2019-03-31T09:45:06.458Z,18.63
2019-03-31T09:47:35.039Z,18.67
2019-03-31T09:50:06.735Z,17.13
2019-03-31T09:52:35.324Z,17.53
2019-03-31T09:55:05.498Z,19.50
2019-03-31T09:57:33.933Z,18.60
2019-03-31T10:00:02.527Z,18.47
2019-03-31T10:02:30.990Z,17.30
2019-03-31T10:04:59.437Z,18.77
2019-03-31T10:07:28.202Z,16.10
2019-03-31T10:09:57.028Z,18.40
2019-03-31T10:12:25.508Z,18.47
2019-03-31T10:14:54.326Z,18.77
2019-03-31T10:17:22.855Z,18.97
2019-03-31T10:19:51.375Z,18.47
2019-03-31T10:22:19.811Z,18.73
2019-03-31T10:24:48.275Z,19.10
2019-03-31T10:27:16.742Z,18.90
2019-03-31T10:29:45.196Z,18.33
2019-03-31T10:32:13.637Z,17.40
2019-03-31T10:34:42.181Z,18.17
2019-03-31T10:37:10.616Z,17.30
2019-03-31T10:39:39.066Z,18.20
2019-03-31T10:42:07.486Z,18.77
2019-03-31T10:44:35.948Z,18.20
2019-03-31T10:47:04.512Z,18.40
2019-03-31T10:49:32.953Z,18.57
2019-03-31T10:52:01.381Z,19.03
2019-03-31T10:54:29.848Z,19.00
2019-03-31T10:56:58.385Z,20.17
2019-03-31T10:59:26.863Z,20.03
2019-03-31T11:01:55.463Z,20.87
2019-03-31T11:04:23.885Z,20.83
2019-03-31T11:06:58.826Z,20.20
2019-03-31T11:09:22.660Z,19.10
2019-03-31T11:11:51.157Z,21.30
2019-03-31T11:14:19.573Z,19.17
2019-03-31T11:16:48.027Z,18.63
2019-03-31T11:19:16.475Z,18.30
2019-03-31T11:21:49.341Z,17.97
2019-03-31T11:24:17.775Z,16.93
2019-03-31T11:26:46.222Z,18.40
2019-03-31T11:29:14.672Z,18.23
2019-03-31T11:31:43.149Z,17.20
2019-03-31T11:34:11.575Z,17.80
2019-03-31T11:36:40.064Z,16.47
2019-03-31T11:39:08.497Z,17.03
2019-03-31T11:41:37.057Z,17.60
2019-03-31T11:44:05.542Z,16.77
2019-03-31T11:46:34.008Z,17.43
2019-03-31T11:49:02.419Z,16.33
2019-03-31T11:51:30.946Z,15.23
2019-03-31T11:53:59.457Z,14.80
2019-03-31T11:56:28.039Z,17.03
2019-03-31T11:58:56.482Z,16.90
2019-03-31T12:01:24.978Z,14.70
2019-03-31T12:03:53.421Z,17.40
2019-03-31T12:06:21.842Z,16.43
2019-03-31T12:08:50.344Z,17.10
2019-03-31T12:11:18.940Z,17.27
2019-03-31T12:13:47.446Z,13.90
2019-03-31T12:16:15.994Z,15.50
2019-03-31T12:18:44.613Z,12.80
2019-03-31T12:21:13.022Z,13.80
2019-03-31T12:23:41.466Z,11.33
2019-03-31T12:26:10.022Z,10.53
2019-03-31T12:28:38.484Z,10.57
2019-03-31T12:31:06.982Z,8.13
2019-03-31T12:33:35.422Z,7.60
2019-03-31T12:36:06.006Z,8.07
2019-03-31T12:38:34.452Z,9.87
2019-03-31T12:41:02.902Z,9.90
2019-03-31T12:43:31.384Z,12.13
2019-03-31T12:45:59.885Z,10.30
2019-03-31T12:48:31.466Z,9.43
2019-03-31T12:50:58.552Z,8.60
2019-03-31T12:53:27.005Z,8.67
2019-03-31T12:56:00.270Z,10.30
2019-03-31T12:58:25.611Z,7.93
2019-03-31T13:00:54.049Z,9.07
2019-03-31T13:03:22.505Z,8.83
2019-03-31T13:05:50.918Z,6.60
2019-03-31T13:08:19.332Z,5.90
2019-03-31T13:10:47.805Z,6.27
2019-03-31T13:13:16.327Z,5.97
2019-03-31T13:15:44.805Z,6.10
2019-03-31T13:18:13.269Z,6.97
2019-03-31T13:20:41.767Z,5.23
2019-03-31T13:23:10.201Z,5.00
2019-03-31T13:25:38.651Z,5.20
2019-03-31T13:28:07.103Z,5.90
2019-03-31T13:30:35.614Z,7.27
2019-03-31T13:33:04.105Z,6.17
2019-03-31T13:35:32.536Z,5.87
2019-03-31T13:38:10.795Z,4.90
2019-03-31T13:40:31.129Z,4.93
2019-03-31T13:42:59.545Z,5.67
2019-03-31T13:45:27.990Z,5.60
2019-03-31T13:47:58.655Z,6.10
2019-03-31T13:50:26.613Z,5.30
2019-03-31T13:52:55.042Z,4.90
2019-03-31T13:55:23.581Z,4.87
2019-03-31T13:57:53.004Z,6.03
2019-03-31T14:00:39.976Z,5.10
2019-03-31T14:03:08.545Z,5.70
2019-03-31T14:05:37.036Z,4.93
2019-03-31T14:08:05.814Z,4.87
2019-03-31T14:10:34.240Z,4.57
2019-03-31T14:13:02.937Z,5.60
2019-03-31T14:15:31.373Z,5.90
2019-03-31T14:17:59.873Z,5.80
2019-03-31T14:20:28.321Z,7.07
2019-03-31T14:22:56.768Z,6.50
2019-03-31T14:25:25.232Z,8.80
2019-03-31T14:27:53.667Z,5.33
2019-03-31T14:30:22.438Z,7.07
2019-03-31T14:32:50.900Z,17.90
2019-03-31T14:35:19.413Z,12.87
2019-03-31T14:37:47.857Z,6.30
2019-03-31T14:40:16.277Z,5.53
2019-03-31T14:42:44.815Z,4.43
2019-03-31T14:45:16.296Z,4.40
2019-03-31T14:47:44.766Z,5.43
2019-03-31T14:50:16.241Z,5.73
2019-03-31T14:52:44.686Z,5.27
2019-03-31T14:55:13.133Z,6.10
2019-03-31T14:57:41.650Z,5.00
2019-03-31T15:00:14.919Z,5.80
2019-03-31T15:02:40.683Z,4.47
2019-03-31T15:05:09.179Z,4.20
2019-03-31T15:07:37.595Z,3.97
2019-03-31T15:10:06.584Z,4.73
2019-03-31T15:12:35.009Z,6.93
2019-03-31T15:15:03.814Z,4.93
2019-03-31T15:17:32.262Z,6.50
2019-03-31T15:20:00.749Z,5.10
2019-03-31T15:22:29.274Z,5.60
2019-03-31T15:24:57.721Z,7.00
2019-03-31T15:27:26.168Z,4.60
2019-03-31T15:29:54.623Z,3.83
2019-03-31T15:32:23.016Z,3.70
2019-03-31T15:34:51.561Z,3.37
2019-03-31T15:37:20.009Z,3.90
2019-03-31T15:39:48.435Z,3.67
2019-03-31T15:42:16.878Z,3.80
2019-03-31T15:44:45.324Z,3.80
2019-03-31T15:47:13.751Z,4.00
2019-03-31T15:49:42.165Z,4.40
2019-03-31T15:52:10.615Z,3.73
2019-03-31T15:54:39.084Z,5.50
2019-03-31T15:57:07.641Z,4.10
2019-03-31T15:59:36.078Z,3.90
2019-03-31T16:02:04.514Z,3.90
2019-03-31T16:04:33.039Z,3.23
2019-03-31T16:07:02.370Z,3.97
2019-03-31T16:09:30.873Z,4.27
2019-03-31T16:11:59.346Z,3.70
2019-03-31T16:14:27.775Z,4.53
2019-03-31T16:16:56.308Z,3.97
2019-03-31T16:19:24.782Z,4.37
2019-03-31T16:21:53.230Z,3.80
2019-03-31T16:24:23.309Z,4.50
2019-03-31T16:26:52.998Z,4.27
2019-03-31T16:29:21.645Z,3.47
2019-03-31T16:31:50.207Z,4.00
2019-03-31T16:34:18.667Z,3.70
2019-03-31T16:36:47.140Z,3.30
2019-03-31T16:39:15.575Z,3.30
2019-03-31T16:41:43.988Z,4.10
2019-03-31T16:44:12.436Z,3.67
2019-03-31T16:46:40.983Z,3.43
2019-03-31T16:49:09.519Z,5.30
2019-03-31T16:51:37.952Z,3.90
2019-03-31T16:54:06.383Z,3.90
2019-03-31T16:56:34.903Z,4.70
2019-03-31T16:59:03.478Z,4.27
2019-03-31T17:01:31.893Z,4.10
2019-03-31T17:04:00.327Z,3.60
2019-03-31T17:06:28.760Z,3.70
2019-03-31T17:08:57.216Z,3.37
2019-03-31T17:11:25.666Z,3.80
2019-03-31T17:13:54.150Z,4.30
2019-03-31T17:16:22.660Z,4.57
2019-03-31T17:18:51.234Z,3.73
2019-03-31T17:21:19.657Z,3.97
2019-03-31T17:23:48.163Z,3.70
2019-03-31T17:26:16.673Z,3.87
2019-03-31T17:28:45.173Z,4.00
2019-03-31T17:31:13.678Z,4.50
2019-03-31T17:33:42.111Z,4.67
2019-03-31T17:36:10.619Z,3.70
2019-03-31T17:38:39.176Z,4.13
2019-03-31T17:41:07.638Z,4.10
2019-03-31T17:43:37.739Z,4.20
2019-03-31T17:46:06.203Z,4.47
2019-03-31T17:48:34.731Z,4.70
2019-03-31T17:51:03.180Z,4.73
2019-03-31T17:53:31.618Z,5.00
2019-03-31T17:56:00.141Z,5.67
2019-03-31T17:58:28.593Z,5.03
2019-03-31T18:00:57.193Z,5.30
2019-03-31T18:03:25.727Z,5.10
2019-03-31T18:05:54.179Z,5.17
2019-03-31T18:08:22.622Z,5.40
2019-03-31T18:10:51.290Z,4.73
2019-03-31T18:13:19.722Z,4.93
2019-03-31T18:15:48.182Z,5.07
2019-03-31T18:18:16.718Z,5.80
2019-03-31T18:20:45.321Z,5.07
2019-03-31T18:23:13.768Z,5.10
2019-03-31T18:25:42.229Z,6.13
2019-03-31T18:28:10.721Z,6.00
2019-03-31T18:30:39.312Z,5.10
2019-03-31T18:33:07.799Z,4.80
2019-03-31T18:35:36.285Z,4.80
2019-03-31T18:38:04.752Z,4.93
2019-03-31T18:40:35.352Z,5.17
2019-03-31T18:43:03.477Z,5.30
2019-03-31T18:45:31.963Z,6.27
2019-03-31T18:48:01.292Z,5.63
2019-03-31T18:50:30.043Z,5.50
2019-03-31T18:52:58.916Z,6.00
2019-03-31T18:55:35.073Z,5.37
2019-03-31T18:58:14.241Z,6.40
2019-03-31T19:00:50.196Z,6.10
2019-03-31T19:03:36.393Z,5.77
2019-03-31T19:06:22.929Z,5.93
2019-03-31T19:08:53.012Z,6.70
2019-03-31T19:11:41.105Z,6.83
2019-03-31T19:14:17.436Z,6.03
2019-03-31T19:16:47.839Z,6.63
2019-03-31T19:19:34.082Z,6.17
2019-03-31T19:22:04.202Z,6.93
2019-03-31T19:24:37.405Z,7.43
2019-03-31T19:27:22.167Z,7.30
2019-03-31T19:30:11.442Z,7.00
2019-03-31T19:32:44.113Z,7.63
2019-03-31T19:35:29.240Z,7.93
2019-03-31T19:38:05.623Z,7.70
2019-03-31T19:40:35.893Z,7.93
2019-03-31T19:43:17.931Z,8.67
2019-03-31T19:45:51.042Z,8.40
2019-03-31T19:48:23.920Z,8.40
2019-03-31T19:50:54.011Z,9.17
2019-03-31T19:53:40.454Z,9.00
2019-03-31T19:56:25.698Z,9.00
2019-03-31T19:59:04.528Z,9.10
2019-03-31T20:01:50.696Z,9.07
2019-03-31T20:04:36.978Z,9.77
2019-03-31T20:07:21.928Z,10.13
2019-03-31T20:09:52.083Z,9.20
2019-03-31T20:12:38.532Z,11.97
2019-03-31T20:15:18.212Z,10.40
2019-03-31T20:18:03.382Z,11.30
2019-03-31T20:20:45.569Z,10.60
2019-03-31T20:23:21.533Z,11.90
2019-03-31T20:26:07.615Z,12.70
2019-03-31T20:28:43.181Z,10.73
2019-03-31T20:31:13.314Z,12.43
2019-03-31T20:33:46.446Z,12.57
2019-03-31T20:36:19.541Z,11.50
2019-03-31T20:39:04.873Z,13.90
2019-03-31T20:41:35.115Z,12.23
2019-03-31T20:44:03.668Z,14.53
2019-03-31T20:46:32.165Z,13.27
2019-03-31T20:49:00.776Z,13.40
2019-03-31T20:51:29.211Z,13.07
2019-03-31T20:53:57.686Z,13.37
2019-03-31T20:56:26.352Z,14.20
2019-03-31T20:58:54.796Z,14.30
2019-03-31T21:01:23.254Z,14.43
2019-03-31T21:03:51.710Z,13.73
2019-03-31T21:06:20.201Z,12.70
2019-03-31T21:08:48.719Z,13.00
2019-03-31T21:11:17.270Z,15.20
2019-03-31T21:13:45.691Z,13.53
2019-03-31T21:16:14.111Z,13.50
2019-03-31T21:18:42.620Z,14.80
2019-03-31T21:21:11.133Z,16.80
2019-03-31T21:23:39.611Z,14.67
2019-03-31T21:26:08.077Z,15.10
2019-03-31T21:28:36.585Z,16.33
2019-03-31T21:31:05.265Z,16.83
2019-03-31T21:33:33.805Z,15.47
2019-03-31T21:36:02.396Z,16.87
2019-03-31T21:38:30.900Z,17.53
2019-03-31T21:40:59.332Z,17.90
2019-03-31T21:43:27.806Z,17.77
2019-03-31T21:45:56.248Z,17.40
2019-03-31T21:48:24.750Z,19.30
2019-03-31T21:50:53.180Z,17.37
2019-03-31T21:53:21.736Z,19.50
2019-03-31T21:55:50.217Z,18.50
2019-03-31T21:58:18.783Z,19.90
2019-03-31T22:00:56.492Z,19.70
2019-03-31T22:03:25.068Z,19.17
2019-03-31T22:05:53.557Z,19.50
2019-03-31T22:08:22.045Z,19.53
2019-03-31T22:10:50.516Z,21.10
2019-03-31T22:13:19.117Z,22.27
2019-03-31T22:15:47.593Z,20.60
2019-03-31T22:18:16.149Z,20.17
2019-03-31T22:20:47.219Z,22.00
2019-03-31T22:23:14.912Z,22.83
2019-03-31T22:25:43.389Z,22.70
2019-03-31T22:28:11.871Z,21.20
2019-03-31T22:30:40.306Z,22.17
2019-03-31T22:33:08.750Z,25.77
2019-03-31T22:35:37.317Z,22.87
2019-03-31T22:38:05.802Z,26.23
2019-03-31T22:40:34.475Z,28.93
2019-03-31T22:43:03.028Z,31.00
2019-03-31T22:45:31.456Z,30.00
2019-03-31T22:47:59.893Z,30.30
2019-03-31T22:50:28.338Z,28.50
2019-03-31T22:52:56.890Z,27.27
2019-03-31T22:55:25.391Z,31.00
2019-03-31T22:57:53.805Z,30.57
2019-03-31T23:00:23.891Z,31.27
2019-03-31T23:02:52.345Z,32.33
2019-03-31T23:05:20.794Z,30.37
2019-03-31T23:07:49.222Z,32.20
2019-03-31T23:10:17.702Z,30.87
2019-03-31T23:12:46.112Z,32.50
2019-03-31T23:15:14.642Z,31.67
2019-03-31T23:17:43.078Z,33.60
2019-03-31T23:20:11.564Z,34.00
2019-03-31T23:22:40.094Z,34.80
2019-03-31T23:25:08.596Z,34.83
2019-03-31T23:27:37.323Z,33.50
2019-03-31T23:30:08.711Z,36.20
2019-03-31T23:32:37.168Z,35.57
2019-03-31T23:35:06.782Z,36.37
2019-03-31T23:37:35.422Z,37.63
2019-03-31T23:40:04.794Z,36.80
2019-03-31T23:42:33.239Z,34.60
2019-03-31T23:45:01.749Z,38.90
2019-03-31T23:47:30.285Z,35.70
2019-03-31T23:49:58.706Z,37.27
2019-03-31T23:52:27.161Z,36.63
2019-03-31T23:54:55.665Z,39.83
2019-03-31T23:57:25.764Z,35.83
2019-03-31T23:59:54.196Z,37.83
